Time;durP1;ratioP1;P1;durP2;ratioP2;P2;SDS_P1;SDS_P2;PMS_P1;PMS_P2;Temp;Humidity;BMP_temperature;BMP_pressure;BME280_temperature;BME280_humidity;BME280_pressure;Samples;Min_cycle;Max_cycle;Signal;HPM_P1;HPM_P2
2023/04/18 00:00:27;;;;;;;30.03;20.70;;;7.70;99.90;;;;;;5066883;28;20195;-73
2023/04/18 00:02:52;;;;;;;33.23;20.77;;;7.70;99.90;;;;;;5068238;28;20203;-73
2023/04/18 00:05:19;;;;;;;31.80;18.77;;;7.60;99.90;;;;;;5068466;28;20998;-73
2023/04/18 00:07:45;;;;;;;31.37;19.63;;;7.60;99.90;;;;;;5068413;28;20199;-72
2023/04/18 00:10:11;;;;;;;33.97;20.03;;;7.60;99.90;;;;;;5067418;28;20421;-73
2023/04/18 00:12:36;;;;;;;34.47;19.97;;;7.60;99.90;;;;;;5068621;28;20417;-74
2023/04/18 00:15:03;;;;;;;34.83;20.43;;;7.60;99.90;;;;;;5068739;28;20517;-72
2023/04/18 00:17:30;;;;;;;33.37;20.80;;;7.60;99.90;;;;;;5067511;28;20977;-73
2023/04/18 00:19:57;;;;;;;28.90;19.47;;;7.60;99.90;;;;;;5068579;28;20421;-73
2023/04/18 00:22:24;;;;;;;35.70;21.27;;;7.60;99.90;;;;;;5066900;28;20440;-73
2023/04/18 00:24:50;;;;;;;37.27;21.23;;;7.60;99.90;;;;;;5070261;28;20836;-73
2023/04/18 00:27:20;;;;;;;39.77;21.63;;;7.60;99.90;;;;;;5072044;28;20417;-73
2023/04/18 00:29:46;;;;;;;35.07;21.30;;;7.60;99.90;;;;;;5071608;28;20829;-73
2023/04/18 00:32:12;;;;;;;30.87;20.77;;;7.60;99.90;;;;;;5071493;28;20421;-73
2023/04/18 00:34:39;;;;;;;32.60;21.00;;;7.50;99.90;;;;;;5071272;28;20437;-73
2023/04/18 00:37:05;;;;;;;36.33;20.47;;;7.60;99.90;;;;;;5071139;28;20421;-74
2023/04/18 00:39:31;;;;;;;36.70;22.63;;;7.60;99.90;;;;;;5071146;28;20461;-74
2023/04/18 00:41:56;;;;;;;37.37;22.20;;;7.60;99.90;;;;;;5071135;28;20962;-73
2023/04/18 00:44:22;;;;;;;35.40;21.57;;;7.60;99.90;;;;;;5071166;28;20214;-73
2023/04/18 00:46:47;;;;;;;38.13;20.93;;;7.60;99.90;;;;;;5071204;28;20724;-74
2023/04/18 00:49:14;;;;;;;34.33;21.17;;;7.50;99.90;;;;;;5071001;28;20219;-73
2023/04/18 00:51:40;;;;;;;40.00;22.33;;;7.60;99.90;;;;;;5071028;28;20179;-73
2023/04/18 00:54:06;;;;;;;36.87;21.30;;;7.50;99.90;;;;;;5070831;28;20486;-74
2023/04/18 00:56:34;;;;;;;33.57;22.03;;;7.50;99.90;;;;;;5070914;28;20486;-73
2023/04/18 00:59:00;;;;;;;32.30;21.27;;;7.60;99.90;;;;;;5070767;28;20795;-73
2023/04/18 01:01:26;;;;;;;38.27;22.70;;;7.60;99.90;;;;;;5070753;28;20421;-74
2023/04/18 01:03:51;;;;;;;36.33;22.03;;;7.50;99.90;;;;;;5069812;28;20214;-74
2023/04/18 01:06:17;;;;;;;37.10;21.43;;;7.50;99.90;;;;;;5069656;28;20650;-74
2023/04/18 01:08:43;;;;;;;36.10;21.20;;;7.50;99.90;;;;;;5070525;28;20261;-73
2023/04/18 01:11:09;;;;;;;32.50;20.03;;;7.40;99.90;;;;;;5069191;28;20190;-74
2023/04/18 01:13:35;;;;;;;30.37;20.83;;;7.40;99.90;;;;;;5070408;28;20433;-74
2023/04/18 01:16:00;;;;;;;39.10;21.43;;;7.50;99.90;;;;;;5070428;28;20195;-75
2023/04/18 01:18:26;;;;;;;33.33;21.60;;;7.40;99.90;;;;;;5070429;28;20273;-74
2023/04/18 01:20:55;;;;;;;34.30;21.37;;;7.40;99.90;;;;;;5070418;28;20183;-74
2023/04/18 01:23:21;;;;;;;38.63;21.90;;;7.40;99.90;;;;;;5070399;28;20955;-73
2023/04/18 01:25:50;;;;;;;30.43;19.73;;;7.20;99.90;;;;;;5070430;28;20428;-74
2023/04/18 01:28:17;;;;;;;38.17;22.20;;;7.40;99.90;;;;;;5070218;28;20731;-73
2023/04/18 01:30:42;;;;;;;32.70;20.60;;;7.40;99.90;;;;;;5070290;28;20428;-73
2023/04/18 01:33:08;;;;;;;31.60;20.33;;;7.40;99.90;;;;;;5068684;28;20437;-72
2023/04/18 01:35:34;;;;;;;39.47;22.27;;;7.40;99.90;;;;;;5069541;28;20282;-73
2023/04/18 01:38:00;;;;;;;35.03;21.87;;;7.50;99.90;;;;;;5069830;28;20186;-72
2023/04/18 01:40:26;;;;;;;36.23;21.93;;;7.50;99.90;;;;;;5068405;28;20207;-73
2023/04/18 01:42:51;;;;;;;39.37;22.63;;;7.50;99.90;;;;;;5068610;28;20441;-72
2023/04/18 01:45:18;;;;;;;35.13;21.50;;;7.50;99.90;;;;;;5069860;28;20932;-72
2023/04/18 01:47:45;;;;;;;36.37;22.00;;;7.50;99.90;;;;;;5068806;28;20183;-73
2023/04/18 01:50:11;;;;;;;35.87;21.40;;;7.50;99.90;;;;;;5068481;28;20421;-72
2023/04/18 01:52:38;;;;;;;33.53;20.10;;;7.50;99.90;;;;;;5069824;28;20524;-73
2023/04/18 01:55:04;;;;;;;32.87;20.63;;;7.50;99.90;;;;;;5068203;28;20878;-74
2023/04/18 01:57:32;;;;;;;34.50;22.27;;;7.50;99.90;;;;;;5068319;28;20191;-74
2023/04/18 01:59:58;;;;;;;41.50;22.10;;;7.40;99.90;;;;;;5068234;28;20760;-74
2023/04/18 02:02:23;;;;;;;32.50;18.00;;;7.50;99.90;;;;;;5069518;28;20996;-74
2023/04/18 02:04:49;;;;;;;35.50;20.37;;;7.40;99.90;;;;;;5069532;28;20191;-73
2023/04/18 02:07:14;;;;;;;34.63;21.77;;;7.50;99.90;;;;;;5069599;28;20560;-74
2023/04/18 02:09:40;;;;;;;36.80;21.60;;;7.50;99.90;;;;;;5067922;28;20264;-74
2023/04/18 02:12:06;;;;;;;37.00;21.80;;;7.50;99.90;;;;;;5069641;28;20266;-73
2023/04/18 02:14:35;;;;;;;30.37;19.70;;;7.50;99.90;;;;;;5069450;28;20206;-73
2023/04/18 02:17:01;;;;;;;38.67;20.70;;;7.50;99.90;;;;;;5067838;28;20186;-73
2023/04/18 02:19:28;;;;;;;32.03;19.60;;;7.50;99.90;;;;;;5069306;28;20425;-74
2023/04/18 02:21:53;;;;;;;31.83;19.90;;;7.50;99.90;;;;;;5069136;28;20183;-74
2023/04/18 02:24:19;;;;;;;30.53;19.83;;;7.50;99.90;;;;;;5067770;28;20976;-74
2023/04/18 02:26:45;;;;;;;35.53;21.47;;;7.50;99.90;;;;;;5067908;28;20191;-74
2023/04/18 02:29:10;;;;;;;37.03;20.07;;;7.50;99.90;;;;;;5069104;28;20297;-74
2023/04/18 02:31:38;;;;;;;32.43;21.03;;;7.40;99.90;;;;;;5067558;28;20191;-73
2023/04/18 02:34:04;;;;;;;31.30;19.70;;;7.50;99.90;;;;;;5068932;28;20226;-74
2023/04/18 02:36:29;;;;;;;33.53;20.70;;;7.50;99.90;;;;;;5068923;28;20499;-74
2023/04/18 02:38:55;;;;;;;31.90;18.40;;;7.40;99.90;;;;;;5067192;28;20471;-73
2023/04/18 02:41:21;;;;;;;32.20;19.07;;;7.50;99.90;;;;;;5068813;28;20254;-74
2023/04/18 02:43:46;;;;;;;31.37;20.53;;;7.40;99.90;;;;;;5068715;28;20210;-75
2023/04/18 02:46:12;;;;;;;32.20;20.13;;;7.40;99.90;;;;;;5068720;28;20673;-75
2023/04/18 02:48:38;;;;;;;27.20;18.90;;;7.40;99.90;;;;;;5066448;28;20210;-74
2023/04/18 02:51:04;;;;;;;34.63;18.13;;;7.40;99.90;;;;;;5067436;28;20180;-74
2023/04/18 02:53:30;;;;;;;30.53;18.50;;;7.40;99.90;;;;;;5068848;28;20944;-74
2023/04/18 02:55:56;;;;;;;31.50;18.47;;;7.30;99.90;;;;;;5068901;28;20426;-74
2023/04/18 02:58:22;;;;;;;30.40;18.40;;;7.30;99.90;;;;;;5068898;28;20410;-74
2023/04/18 03:00:49;;;;;;;28.60;17.83;;;7.30;99.90;;;;;;5068758;28;20180;-74
2023/04/18 03:03:15;;;;;;;34.70;19.60;;;7.30;99.90;;;;;;5068821;28;20202;-74
2023/04/18 03:05:41;;;;;;;29.33;19.10;;;7.30;99.90;;;;;;5068721;28;21068;-74
2023/04/18 03:08:07;;;;;;;27.20;18.30;;;7.30;99.90;;;;;;5067088;28;20494;-75
2023/04/18 03:10:32;;;;;;;32.53;20.43;;;7.30;99.90;;;;;;5068734;28;20845;-73
2023/04/18 03:12:58;;;;;;;31.73;18.90;;;7.30;99.90;;;;;;5050843;28;20207;-74
2023/04/18 03:15:24;;;;;;;29.37;19.23;;;7.30;99.90;;;;;;5068560;28;20206;-74
2023/04/18 03:17:50;;;;;;;32.23;20.73;;;7.30;99.90;;;;;;5067185;28;20183;-74
2023/04/18 03:20:16;;;;;;;29.67;19.03;;;7.30;99.90;;;;;;5068709;28;20235;-74
2023/04/18 03:22:42;;;;;;;36.47;18.83;;;7.30;99.90;;;;;;5068495;28;20452;-74
2023/04/18 03:25:08;;;;;;;32.03;19.20;;;7.40;99.90;;;;;;5068445;28;20418;-74
2023/04/18 03:27:34;;;;;;;36.57;19.80;;;7.40;99.90;;;;;;5068611;28;20410;-74
2023/04/18 03:30:00;;;;;;;32.23;18.70;;;7.40;99.90;;;;;;5068418;28;20854;-74
2023/04/18 03:32:25;;;;;;;28.43;17.90;;;7.30;99.90;;;;;;5068494;28;20563;-74
2023/04/18 03:34:51;;;;;;;30.50;19.00;;;7.40;99.90;;;;;;5068533;28;20424;-74
2023/04/18 03:37:17;;;;;;;31.57;18.00;;;7.40;99.90;;;;;;5068434;28;20179;-73
2023/04/18 03:39:42;;;;;;;29.60;18.23;;;7.40;99.90;;;;;;5067070;28;20661;-73
2023/04/18 03:42:08;;;;;;;29.80;18.43;;;7.30;99.90;;;;;;5068526;28;20187;-74
2023/04/18 03:44:33;;;;;;;30.70;18.53;;;7.30;99.90;;;;;;5068789;28;20206;-73
2023/04/18 03:46:59;;;;;;;30.23;18.23;;;7.30;99.90;;;;;;5068929;28;20195;-73
2023/04/18 03:49:25;;;;;;;31.50;17.10;;;7.30;99.90;;;;;;5070615;28;20265;-73
2023/04/18 03:51:50;;;;;;;28.33;17.57;;;7.30;99.90;;;;;;5069835;28;20218;-73
2023/04/18 03:54:17;;;;;;;28.63;17.70;;;7.20;99.90;;;;;;5069539;28;20203;-74
2023/04/18 03:56:43;;;;;;;30.07;17.27;;;7.20;99.90;;;;;;5069574;28;20221;-73
2023/04/18 03:59:09;;;;;;;27.70;17.20;;;7.20;99.90;;;;;;5069968;28;20478;-73
2023/04/18 04:01:35;;;;;;;27.50;16.83;;;7.20;99.90;;;;;;5073139;28;20819;-72
2023/04/18 04:04:01;;;;;;;27.83;18.10;;;7.10;99.90;;;;;;5072977;28;20437;-73
2023/04/18 04:06:27;;;;;;;29.30;16.80;;;7.10;99.90;;;;;;5072517;28;20207;-72
2023/04/18 04:08:53;;;;;;;26.90;16.40;;;7.10;99.90;;;;;;5070859;28;20499;-72
2023/04/18 04:11:18;;;;;;;28.53;17.83;;;7.10;99.90;;;;;;5072207;28;20179;-73
2023/04/18 04:13:44;;;;;;;28.10;16.87;;;7.10;99.90;;;;;;5071852;28;20203;-73
2023/04/18 04:16:09;;;;;;;28.30;16.90;;;7.10;99.90;;;;;;5070585;28;20286;-73
2023/04/18 04:18:35;;;;;;;23.83;15.40;;;7.20;99.90;;;;;;5072087;28;20269;-73
2023/04/18 04:21:02;;;;;;;27.20;15.50;;;7.10;99.90;;;;;;5072430;28;20194;-73
2023/04/18 04:23:27;;;;;;;26.03;16.80;;;7.10;99.90;;;;;;5071908;28;20211;-73
2023/04/18 04:25:54;;;;;;;24.93;15.83;;;7.10;99.90;;;;;;5071518;28;20424;-73
2023/04/18 04:28:21;;;;;;;25.83;16.90;;;7.20;99.90;;;;;;5070331;28;20259;-73
2023/04/18 04:30:49;;;;;;;26.50;16.40;;;7.20;99.90;;;;;;5071833;28;20791;-73
2023/04/18 04:33:18;;;;;;;25.63;16.50;;;7.20;99.90;;;;;;5071419;28;20524;-73
2023/04/18 04:35:44;;;;;;;27.27;16.33;;;7.20;99.90;;;;;;5070404;28;20421;-73
2023/04/18 04:38:11;;;;;;;28.33;15.87;;;7.20;99.90;;;;;;5070011;28;20436;-72
2023/04/18 04:40:36;;;;;;;22.10;15.90;;;7.20;99.90;;;;;;5069723;28;20474;-72
2023/04/18 04:43:02;;;;;;;23.37;16.10;;;7.20;99.90;;;;;;5071182;28;20445;-72
2023/04/18 04:45:27;;;;;;;22.30;15.00;;;7.20;99.90;;;;;;5070362;28;20195;-73
2023/04/18 04:47:53;;;;;;;24.70;15.63;;;7.20;99.90;;;;;;5071136;28;20188;-72
2023/04/18 04:50:19;;;;;;;32.07;16.73;;;7.20;99.90;;;;;;5069871;28;20236;-72
2023/04/18 04:52:44;;;;;;;26.77;16.70;;;7.10;99.90;;;;;;5071128;28;20199;-72
2023/04/18 04:55:10;;;;;;;23.97;15.80;;;7.10;99.90;;;;;;5070269;28;20179;-74
2023/04/18 04:57:36;;;;;;;25.03;16.07;;;7.10;99.90;;;;;;5068044;28;20647;-73
2023/04/18 05:00:04;;;;;;;23.93;16.00;;;7.10;99.90;;;;;;5069778;28;20192;-73
2023/04/18 05:02:29;;;;;;;26.30;16.40;;;7.10;99.90;;;;;;5051506;28;20436;-73
2023/04/18 05:04:55;;;;;;;26.00;16.70;;;7.20;99.90;;;;;;5069753;28;20428;-72
2023/04/18 05:07:20;;;;;;;24.30;16.10;;;7.20;99.90;;;;;;5070383;28;20202;-72
2023/04/18 05:09:46;;;;;;;25.40;17.40;;;7.20;99.90;;;;;;5068749;28;20310;-73
2023/04/18 05:12:12;;;;;;;24.57;16.50;;;7.20;99.90;;;;;;5069125;28;20653;-73
2023/04/18 05:14:37;;;;;;;28.10;17.60;;;7.20;99.90;;;;;;5069697;28;20199;-73
2023/04/18 05:17:03;;;;;;;28.40;17.33;;;7.20;99.90;;;;;;5069799;28;20256;-72
2023/04/18 05:19:28;;;;;;;25.97;16.93;;;7.20;99.90;;;;;;5069987;28;20190;-73
2023/04/18 05:21:54;;;;;;;25.20;16.37;;;7.20;99.90;;;;;;5069604;28;20182;-73
2023/04/18 05:24:20;;;;;;;26.60;16.57;;;7.20;99.90;;;;;;5069524;28;20658;-72
2023/04/18 05:26:46;;;;;;;27.27;17.43;;;7.30;99.90;;;;;;5069096;28;20422;-73
2023/04/18 05:29:11;;;;;;;25.00;16.30;;;7.30;99.90;;;;;;5069042;28;20750;-73
2023/04/18 05:31:37;;;;;;;23.70;15.90;;;7.30;99.90;;;;;;5068971;28;20192;-73
2023/04/18 05:34:02;;;;;;;29.40;16.23;;;7.50;99.90;;;;;;5068609;28;20235;-74
2023/04/18 05:36:28;;;;;;;22.17;16.13;;;7.40;99.90;;;;;;5067246;28;20187;-73
2023/04/18 05:38:53;;;;;;;24.90;16.10;;;7.50;99.90;;;;;;5068678;28;20186;-73
2023/04/18 05:41:19;;;;;;;23.07;15.60;;;7.50;99.90;;;;;;5067202;28;20655;-73
2023/04/18 05:43:45;;;;;;;28.90;17.07;;;7.50;99.90;;;;;;5066841;28;20234;-73
2023/04/18 05:46:11;;;;;;;26.27;17.40;;;7.50;99.90;;;;;;5068368;28;20676;-74
2023/04/18 05:48:37;;;;;;;28.00;17.20;;;7.50;99.90;;;;;;5066843;28;20670;-73
2023/04/18 05:51:03;;;;;;;22.60;15.27;;;7.50;99.90;;;;;;5068487;28;20516;-74
2023/04/18 05:53:29;;;;;;;27.07;17.70;;;7.50;99.90;;;;;;5068470;28;20223;-73
2023/04/18 05:55:56;;;;;;;26.20;16.50;;;7.50;99.90;;;;;;5068272;28;20506;-73
2023/04/18 05:58:22;;;;;;;25.23;16.00;;;7.60;99.90;;;;;;5067025;28;20722;-72
2023/04/18 06:00:47;;;;;;;27.60;14.73;;;7.50;99.90;;;;;;5068420;28;20517;-73
2023/04/18 06:03:13;;;;;;;28.00;17.70;;;7.60;99.90;;;;;;5068194;28;20448;-74
2023/04/18 06:05:39;;;;;;;23.10;16.77;;;7.60;99.90;;;;;;5068388;28;20187;-71
2023/04/18 06:08:06;;;;;;;28.73;16.80;;;7.60;99.90;;;;;;5068066;28;20716;-73
2023/04/18 06:10:32;;;;;;;23.67;15.70;;;7.60;99.90;;;;;;5068374;28;20431;-72
2023/04/18 06:12:57;;;;;;;27.90;17.47;;;7.60;99.90;;;;;;5068582;28;20441;-71
2023/04/18 06:15:23;;;;;;;23.17;15.30;;;7.70;99.90;;;;;;5068269;28;20187;-72
2023/04/18 06:17:49;;;;;;;24.57;16.57;;;7.60;99.90;;;;;;5066708;28;20183;-72
2023/04/18 06:20:15;;;;;;;24.63;15.90;;;7.60;99.90;;;;;;5068080;28;20930;-72
2023/04/18 06:22:41;;;;;;;27.47;18.27;;;7.70;99.90;;;;;;5067563;28;20534;-71
2023/04/18 06:25:08;;;;;;;24.20;15.77;;;7.70;99.90;;;;;;5067984;28;20196;-72
2023/04/18 06:27:35;;;;;;;23.13;15.70;;;7.70;99.90;;;;;;5066646;28;20187;-72
2023/04/18 06:30:00;;;;;;;23.97;16.10;;;7.80;99.90;;;;;;5067982;28;20470;-73
2023/04/18 06:32:26;;;;;;;23.07;16.20;;;7.80;99.90;;;;;;5068209;28;20893;-72
2023/04/18 06:34:52;;;;;;;23.27;17.60;;;7.70;99.90;;;;;;5068040;28;20190;-71
2023/04/18 06:37:17;;;;;;;25.07;17.40;;;7.80;99.90;;;;;;5068424;28;21007;-71
2023/04/18 06:39:43;;;;;;;25.07;16.33;;;7.90;99.90;;;;;;5066796;28;20689;-73
2023/04/18 06:42:09;;;;;;;22.40;15.40;;;8.00;99.90;;;;;;5068243;28;20750;-71
2023/04/18 06:44:35;;;;;;;23.43;16.37;;;8.00;99.90;;;;;;5066518;28;20238;-73
2023/04/18 06:47:01;;;;;;;25.90;17.37;;;8.00;99.90;;;;;;5067839;28;20190;-72
2023/04/18 06:49:26;;;;;;;23.97;16.87;;;8.00;99.90;;;;;;5067671;28;20468;-72
2023/04/18 06:51:52;;;;;;;27.13;17.50;;;8.00;99.90;;;;;;5067632;28;20414;-71
2023/04/18 06:54:18;;;;;;;28.10;17.80;;;8.00;99.90;;;;;;5067365;28;20202;-71
2023/04/18 06:56:43;;;;;;;25.50;17.90;;;8.00;99.90;;;;;;5066372;28;20190;-72
2023/04/18 06:59:09;;;;;;;25.77;18.10;;;8.00;99.90;;;;;;5067523;28;20248;-71
2023/04/18 07:01:40;;;;;;;24.83;17.50;;;8.00;99.90;;;;;;5066101;28;20207;-71
2023/04/18 07:04:06;;;;;;;25.30;18.67;;;8.00;99.90;;;;;;5067412;28;20203;-73
2023/04/18 07:06:33;;;;;;;26.40;18.53;;;8.00;99.90;;;;;;5067534;28;20440;-71
2023/04/18 07:09:00;;;;;;;26.00;18.00;;;8.00;99.90;;;;;;5066936;28;20600;-71
2023/04/18 07:11:26;;;;;;;27.57;18.13;;;7.90;99.90;;;;;;5065670;28;20474;-72
2023/04/18 07:13:52;;;;;;;28.23;18.87;;;8.00;99.90;;;;;;5067062;28;20441;-72
2023/04/18 07:16:17;;;;;;;32.10;19.03;;;8.10;99.90;;;;;;5067049;28;20815;-72
2023/04/18 07:18:43;;;;;;;26.00;18.27;;;8.10;99.90;;;;;;5067066;28;20262;-72
2023/04/18 07:21:08;;;;;;;28.93;17.57;;;8.10;99.90;;;;;;5065601;28;20569;-72
2023/04/18 07:23:34;;;;;;;26.80;17.70;;;8.10;99.90;;;;;;5066956;28;20733;-73
2023/04/18 07:26:01;;;;;;;32.43;17.90;;;8.20;99.90;;;;;;5066904;28;20190;-70
2023/04/18 07:28:27;;;;;;;28.97;19.43;;;8.30;99.90;;;;;;5066798;28;20472;-72
2023/04/18 07:30:55;;;;;;;28.33;17.33;;;8.40;99.90;;;;;;5066983;28;20986;-72
2023/04/18 07:33:21;;;;;;;25.90;17.73;;;8.40;99.90;;;;;;5066675;28;20622;-72
2023/04/18 07:35:48;;;;;;;25.33;17.83;;;8.50;99.90;;;;;;5068646;28;20432;-72
2023/04/18 07:38:15;;;;;;;29.47;18.17;;;8.50;99.90;;;;;;5070959;28;20508;-71
2023/04/18 07:40:40;;;;;;;28.93;18.13;;;8.60;99.90;;;;;;5070778;28;20525;-70
2023/04/18 07:43:06;;;;;;;23.90;17.83;;;8.60;99.90;;;;;;5070827;28;21142;-71
2023/04/18 07:45:34;;;;;;;24.23;17.30;;;8.60;99.90;;;;;;5070745;28;20194;-73
2023/04/18 07:48:00;;;;;;;29.23;19.13;;;8.60;99.90;;;;;;5069215;28;20647;-72
2023/04/18 07:50:26;;;;;;;27.30;19.20;;;8.70;99.90;;;;;;5070731;28;20409;-72
2023/04/18 07:52:52;;;;;;;23.40;16.10;;;8.80;99.90;;;;;;5070725;28;20502;-73
2023/04/18 07:55:17;;;;;;;26.80;17.90;;;8.80;99.90;;;;;;5070518;28;20431;-72
2023/04/18 07:57:43;;;;;;;23.03;15.97;;;8.90;99.90;;;;;;5069086;28;20215;-73
2023/04/18 08:00:11;;;;;;;24.60;16.07;;;8.90;99.90;;;;;;5068955;28;20195;-72
2023/04/18 08:02:36;;;;;;;27.23;16.43;;;9.00;99.90;;;;;;5070417;28;20734;-71
2023/04/18 08:05:02;;;;;;;26.57;17.60;;;9.00;99.90;;;;;;5068716;28;20430;-71
2023/04/18 08:07:28;;;;;;;23.70;16.80;;;9.00;99.90;;;;;;5070577;28;20265;-72
2023/04/18 08:09:53;;;;;;;27.00;17.47;;;9.00;99.90;;;;;;5070309;28;20214;-73
2023/04/18 08:12:19;;;;;;;23.03;16.53;;;9.10;99.90;;;;;;5070170;28;20542;-71
2023/04/18 08:14:45;;;;;;;25.30;16.07;;;9.20;99.90;;;;;;5068736;28;20223;-71
2023/04/18 08:17:10;;;;;;;25.80;17.07;;;9.20;99.90;;;;;;5068480;28;20828;-72
2023/04/18 08:19:36;;;;;;;26.20;16.87;;;9.20;99.90;;;;;;5069026;28;20646;-72
2023/04/18 08:22:09;;;;;;;26.03;17.23;;;9.20;99.90;;;;;;5052140;28;20195;-72
2023/04/18 08:24:39;;;;;;;25.30;15.80;;;9.30;99.90;;;;;;5068351;28;20261;-71
2023/04/18 08:27:05;;;;;;;26.73;17.93;;;9.40;99.90;;;;;;5068889;28;20424;-71
2023/04/18 08:29:30;;;;;;;22.10;16.63;;;9.40;99.90;;;;;;5070420;28;20471;-73
2023/04/18 08:31:56;;;;;;;22.23;17.30;;;9.50;99.90;;;;;;5070064;28;20183;-72
2023/04/18 08:34:22;;;;;;;26.80;16.50;;;9.50;99.90;;;;;;5070336;28;20290;-72
2023/04/18 08:36:49;;;;;;;24.50;17.07;;;9.50;99.90;;;;;;5070386;28;20508;-73
2023/04/18 08:39:15;;;;;;;23.13;16.80;;;9.60;99.90;;;;;;5068815;28;20441;-72
2023/04/18 08:41:42;;;;;;;24.90;17.33;;;9.70;99.90;;;;;;5069064;28;20964;-71
2023/04/18 08:44:08;;;;;;;24.80;17.10;;;9.80;99.90;;;;;;5069802;28;20233;-73
2023/04/18 08:46:37;;;;;;;24.20;16.33;;;10.00;99.90;;;;;;5069586;28;20420;-72
2023/04/18 08:49:03;;;;;;;24.47;16.87;;;10.20;99.90;;;;;;5067802;28;20514;-73
2023/04/18 08:51:31;;;;;;;24.80;16.70;;;10.30;99.90;;;;;;5069714;28;20902;-71
2023/04/18 08:54:01;;;;;;;25.40;17.00;;;10.30;99.90;;;;;;5067987;28;20891;-72
2023/04/18 08:56:27;;;;;;;25.00;17.10;;;10.30;99.90;;;;;;5069587;28;20579;-72
2023/04/18 08:58:54;;;;;;;25.17;17.03;;;10.30;99.90;;;;;;5069522;28;20843;-71
2023/04/18 09:01:20;;;;;;;26.70;18.37;;;10.30;99.90;;;;;;5067749;28;20436;-72
2023/04/18 09:03:46;;;;;;;22.90;16.40;;;10.30;99.90;;;;;;5069390;28;20450;-73
2023/04/18 09:06:15;;;;;;;24.10;18.03;;;10.40;99.90;;;;;;5069338;28;20678;-71
2023/04/18 09:08:45;;;;;;;24.03;17.73;;;10.40;99.90;;;;;;5069227;28;20229;-72
2023/04/18 09:11:22;;;;;;;22.70;17.60;;;10.50;99.90;;;;;;5068061;28;20424;-71
2023/04/18 09:13:49;;;;;;;24.37;17.43;;;10.60;99.90;;;;;;5069060;28;20481;-73
2023/04/18 09:16:15;;;;;;;24.30;18.00;;;10.60;99.90;;;;;;5067789;28;20429;-72
2023/04/18 09:19:02;;;;;;;27.57;18.20;;;10.70;99.90;;;;;;5067983;28;20428;-73
2023/04/18 09:21:28;;;;;;;24.63;16.60;;;10.90;99.90;;;;;;5069133;28;20961;-72
2023/04/18 09:24:27;;;;;;;22.20;16.33;;;11.10;99.90;;;;;;5068948;28;20472;-71
2023/04/18 09:26:55;;;;;;;19.77;14.70;;;11.20;99.90;;;;;;5067529;28;20431;-73
2023/04/18 09:29:40;;;;;;;21.47;16.30;;;11.30;99.90;;;;;;5067638;28;20474;-72
2023/04/18 09:32:05;;;;;;;20.57;15.33;;;11.50;99.90;;;;;;5069004;28;20414;-72
2023/04/18 09:34:32;;;;;;;17.87;14.53;;;11.60;99.90;;;;;;5069120;28;20971;-71
2023/04/18 09:37:09;;;;;;;19.87;14.03;;;11.60;99.90;;;;;;5069414;28;20445;-72
2023/04/18 09:39:37;;;;;;;19.80;14.47;;;11.70;99.90;;;;;;5069418;28;20901;-70
2023/04/18 09:42:03;;;;;;;18.03;14.67;;;11.80;99.90;;;;;;5067855;28;21290;-71
2023/04/18 09:44:29;;;;;;;17.33;13.90;;;11.70;99.90;;;;;;5067913;28;20452;-72
2023/04/18 09:46:55;;;;;;;17.20;14.03;;;11.80;99.90;;;;;;5069300;28;20414;-70
2023/04/18 09:49:21;;;;;;;15.80;12.40;;;11.70;99.90;;;;;;5069125;28;20688;-72
2023/04/18 09:51:59;;;;;;;18.03;13.53;;;11.80;99.90;;;;;;5067479;28;20210;-71
2023/04/18 09:54:28;;;;;;;18.37;14.10;;;11.90;99.90;;;;;;5068501;28;20431;-72
2023/04/18 09:56:55;;;;;;;17.87;14.07;;;12.00;99.90;;;;;;5067937;28;20436;-72
2023/04/18 09:59:35;;;;;;;19.07;14.30;;;12.00;99.90;;;;;;5066864;28;20522;-72
2023/04/18 10:02:04;;;;;;;19.50;14.27;;;12.10;99.90;;;;;;5068751;28;20442;-72
2023/04/18 10:04:31;;;;;;;20.90;12.57;;;12.20;99.90;;;;;;5067656;28;20845;-72
2023/04/18 10:06:57;;;;;;;17.93;13.40;;;12.40;99.90;;;;;;5067951;28;20422;-73
2023/04/18 10:09:23;;;;;;;19.67;13.00;;;12.30;99.90;;;;;;5066393;28;20470;-72
2023/04/18 10:11:49;;;;;;;19.83;12.97;;;12.20;99.90;;;;;;5067761;28;20420;-73
2023/04/18 10:14:16;;;;;;;19.33;13.67;;;12.30;99.90;;;;;;5067603;28;20200;-71
2023/04/18 10:16:44;;;;;;;17.10;13.80;;;12.30;99.90;;;;;;5067455;28;20457;-72
2023/04/18 10:19:24;;;;;;;17.73;12.60;;;12.30;99.90;;;;;;5067695;28;20418;-72
2023/04/18 10:21:55;;;;;;;16.03;12.77;;;12.40;99.90;;;;;;5068078;28;21050;-72
2023/04/18 10:24:48;;;;;;;20.50;13.23;;;12.30;99.90;;;;;;5067256;28;20452;-72
2023/04/18 10:27:15;;;;;;;17.03;12.10;;;12.30;99.90;;;;;;5066996;28;20446;-73
2023/04/18 10:29:52;;;;;;;19.40;13.10;;;12.40;99.90;;;;;;5067296;28;20465;-72
2023/04/18 10:32:21;;;;;;;15.83;12.10;;;12.30;99.90;;;;;;5065893;28;20947;-72
2023/04/18 10:34:48;;;;;;;17.47;13.17;;;12.40;99.90;;;;;;5067188;28;20427;-72
2023/04/18 10:37:14;;;;;;;17.33;12.37;;;12.40;99.90;;;;;;5067164;28;20926;-73
2023/04/18 10:39:48;;;;;;;25.73;13.50;;;12.60;99.90;;;;;;5067096;28;20512;-73
2023/04/18 10:42:13;;;;;;;21.33;13.13;;;12.60;99.90;;;;;;5067109;28;20499;-73
2023/04/18 10:44:39;;;;;;;17.67;12.10;;;12.60;99.90;;;;;;5066948;28;20530;-72
2023/04/18 10:47:07;;;;;;;18.50;12.30;;;12.60;99.90;;;;;;5066903;28;20855;-72
2023/04/18 10:49:35;;;;;;;14.17;10.90;;;12.50;99.90;;;;;;5066964;28;20610;-72
2023/04/18 10:52:02;;;;;;;16.37;12.00;;;12.30;99.90;;;;;;5066981;28;20783;-72
2023/04/18 10:54:51;;;;;;;15.90;11.23;;;12.40;99.90;;;;;;5065358;28;20887;-72
2023/04/18 10:57:17;;;;;;;18.50;11.30;;;12.50;99.90;;;;;;5066917;28;21000;-72
2023/04/18 10:59:50;;;;;;;12.43;9.70;;;12.40;99.90;;;;;;5065508;28;20419;-73
2023/04/18 11:02:34;;;;;;;13.33;10.30;;;12.30;99.90;;;;;;5067368;28;20185;-71
2023/04/18 11:05:03;;;;;;;14.87;9.50;;;12.60;99.90;;;;;;5065977;28;20437;-71
2023/04/18 11:07:47;;;;;;;14.40;10.10;;;12.90;99.90;;;;;;5067478;28;20942;-72
2023/04/18 11:10:19;;;;;;;12.77;10.13;;;13.00;99.90;;;;;;5066604;28;20453;-73
2023/04/18 11:12:45;;;;;;;15.87;11.57;;;13.00;99.90;;;;;;5065468;28;20452;-73
2023/04/18 11:15:21;;;;;;;14.87;9.57;;;13.10;99.90;;;;;;5067291;28;20500;-72
2023/04/18 11:18:03;;;;;;;12.50;9.20;;;12.90;99.90;;;;;;5067308;28;20476;-72
2023/04/18 11:20:37;;;;;;;12.33;9.57;;;12.70;99.90;;;;;;5067094;28;20791;-74
2023/04/18 11:23:03;;;;;;;16.43;10.67;;;12.60;99.90;;;;;;5067105;28;20439;-73
2023/04/18 11:25:35;;;;;;;13.53;10.27;;;12.50;99.90;;;;;;5065866;28;20431;-72
2023/04/18 11:28:03;;;;;;;19.03;11.70;;;12.40;99.90;;;;;;5065637;28;20230;-73
2023/04/18 11:30:36;;;;;;;12.70;10.07;;;12.30;99.90;;;;;;5067282;28;20422;-72
2023/04/18 11:33:10;;;;;;;12.67;9.50;;;12.20;99.90;;;;;;5067091;28;21036;-71
2023/04/18 11:35:40;;;;;;;14.50;10.60;;;12.20;99.90;;;;;;5082651;28;21179;-72
2023/04/18 11:38:07;;;;;;;12.30;8.60;;;12.30;99.90;;;;;;5067060;28;20424;-72
2023/04/18 11:40:33;;;;;;;11.23;9.23;;;12.40;99.90;;;;;;5066989;28;21245;-72
2023/04/18 11:43:04;;;;;;;14.57;9.53;;;12.60;99.90;;;;;;5067233;28;20442;-72
2023/04/18 11:45:30;;;;;;;11.17;9.20;;;12.60;99.90;;;;;;5067209;28;20222;-72
2023/04/18 11:47:59;;;;;;;13.80;8.60;;;12.70;99.90;;;;;;5067206;28;20409;-72
2023/04/18 11:50:26;;;;;;;10.20;7.90;;;12.70;99.90;;;;;;5067352;28;20358;-72
2023/04/18 11:52:53;;;;;;;10.30;8.10;;;12.80;99.90;;;;;;5082628;28;20451;-72
2023/04/18 11:55:23;;;;;;;10.27;8.27;;;12.80;99.90;;;;;;5067650;28;20440;-74
2023/04/18 11:57:53;;;;;;;14.80;8.67;;;13.20;99.90;;;;;;5067399;28;20425;-73
2023/04/18 12:00:29;;;;;;;8.23;7.07;;;13.30;99.90;;;;;;5049063;28;20484;-73
2023/04/18 12:02:55;;;;;;;10.60;8.40;;;13.40;99.90;;;;;;5067242;28;20439;-71
2023/04/18 12:05:39;;;;;;;9.13;6.67;;;13.40;99.90;;;;;;5067105;28;20419;-71
2023/04/18 12:08:16;;;;;;;6.87;6.17;;;13.30;99.90;;;;;;5065620;28;21014;-70
2023/04/18 12:10:46;;;;;;;9.40;6.63;;;13.30;99.90;;;;;;5067111;28;20434;-72
2023/04/18 12:13:12;;;;;;;12.20;7.00;;;13.30;99.90;;;;;;5066563;28;20860;-72
2023/04/18 12:15:44;;;;;;;10.70;6.43;;;13.30;99.90;;;;;;5065354;28;20439;-72
2023/04/18 12:18:15;;;;;;;10.83;6.80;;;13.20;99.90;;;;;;5066974;28;20181;-72
2023/04/18 12:20:52;;;;;;;7.47;6.70;;;13.20;99.90;;;;;;5066852;28;20500;-72
2023/04/18 12:23:36;;;;;;;9.07;6.87;;;13.30;99.90;;;;;;5070555;28;20451;-72
2023/04/18 12:26:27;;;;;;;8.03;6.17;;;13.20;99.90;;;;;;5070816;28;20423;-71
2023/04/18 12:28:53;;;;;;;8.63;6.90;;;13.30;99.90;;;;;;5070410;28;20482;-73
2023/04/18 12:31:20;;;;;;;8.80;6.80;;;13.40;99.90;;;;;;5052308;28;20432;-71
2023/04/18 12:33:45;;;;;;;7.83;6.07;;;13.30;99.90;;;;;;5070258;28;20255;-72
2023/04/18 12:36:11;;;;;;;8.47;7.03;;;13.30;99.90;;;;;;5070511;28;20419;-71